Aeroporto :
LOGIN :

Iscrizione | Disclaimer

   EN    FR    IT 

 










Sommario :    VFR   VFR Marginale   IFR   IFR Intensivo   IFR Molto Intensivo
Visibilità : 
Base nubi : 
>= 8 km
>= 3000ft
5 / 8 km
1000 / 3000 ft
1500m / 5 km
500 / 1000 ft
800 / 1500m
200 / 500 ft
< 800m
< 200 ft
Simboli :   Temporali  Nebbia  Neve Forte  Precipitazioni Forti  Vento > 20 kt
SIGMETs :   Varie  Temporali  Ghiacco  Turbolenza  Onda orograficha  Ceneri Vulcaniche






- Altitudine del aeroporto : 202 ft
- Codice IATA : LGW


EGKK - London Gatwick

ULTIMO METAR :
  • 182250Z 26010KT 9999 SCT021 05/03 Q1016

METARs OBSOLETI :
  • 182220Z 26010KT 9999 FEW021 05/03 Q1016
  • 182150Z 25012KT 9999 FEW021 06/03 Q1016
  • 182120Z 25013KT CAVOK 06/03 Q1015
  • 182050Z 24014KT 9999 FEW018 SCT025 06/04 Q1015
  • 182020Z 23011KT CAVOK 07/04 Q1015

TAF TAF EGKK
Valido dal 18 a 18 ore il 20 a 00 ore UTC


181659Z 1818/1924 23012KT 9999 SCT025
TEMPO 1818/1822 23020G32KT 4000 +SHRA BKN010CB
PROB30
TEMPO 1818/1822 SHGS
BECMG 1821/1824 29012KT
BECMG 1908/1911 23012KT
TEMPO 1912/1918 6000 RA BKN012
PROB30
TEMPO 1918/1924 23015G25KT 6000 RA BKN014



MetMap, La meteo Aeronautica in un colpo d'occhio ! - Copyright ORBIFLY Dicembre 2007 - Disclaimer

ORBIFLY MET'MAP TEAM :

Programmazione e sviluppo : Alexandra Zaïnal
Concezione : Baudouin d'Aumeries
Aiuto per la programmazione : Marc-Olivier Méhu
Supporto tecnico e logistico : Manuel Goepfert
Aiuto per la traduzione : Arnaldo La Scala

Contatto : metmap@orbifly.com




FONTI E CREDITI :

   NOAA